WetterOnline ( https://www.wetteronline.de )

Wetter aktuell Friesoythe

Aktuelles Wetter: Friesoythe-Altenoythe (6m)

6-stündlich | Neueste Meldungen
Ortszeit Temperatur Wetter
Mo, 03.08. 8:00 12.8° C leicht bewölkt
Mo, 03.08. 2:00 8.0° C wolkig
So, 02.08. 20:00 18.3° C fast wolkenlos
So, 02.08. 14:00 22.9° C leicht bewölkt
So, 02.08. 8:00 16.0° C leicht bewölkt
So, 02.08. 2:00 15.7° C leicht bewölkt
Sa, 01.08. 20:00 24.3° C bewölkt
Sa, 01.08. 14:00 25.5° C bewölkt
Ortszeit Temperatur Wetter
Mo, 03.08. 11:30 18.8° C wolkig
Mo, 03.08. 11:20 18.8° C wolkig
Mo, 03.08. 11:10 18.8° C wolkig
Mo, 03.08. 11:00 18.1° C leicht bewölkt
Mo, 03.08. 10:50 18.1° C wolkig
Mo, 03.08. 10:40 18.0° C wolkig
Mo, 03.08. 10:30 17.6° C wolkig
Mo, 03.08. 10:00 17.0° C leicht bewölkt
Mo, 03.08. 9:30 16.4° C fast wolkenlos
Mo, 03.08. 9:00 15.0° C fast wolkenlos
Mo, 03.08. 8:30 14.0° C leicht bewölkt
Ortszeit Relative Feuchte Sichtweite
Mo, 03.08. 8:00 94% 26 km
Mo, 03.08. 2:00 94% 40 km
So, 02.08. 20:00 66% 45 km
So, 02.08. 14:00 62% 45 km
So, 02.08. 8:00 93% 19 km
So, 02.08. 2:00 93% 17 km
Sa, 01.08. 20:00 70% 45 km
Sa, 01.08. 14:00 65% 45 km
Ortszeit Relative Feuchte Sichtweite
Mo, 03.08. 11:30 63% >70 km
Mo, 03.08. 11:20 63% -
Mo, 03.08. 11:10 61% -
Mo, 03.08. 11:00 64% 60 km
Mo, 03.08. 10:50 64% -
Mo, 03.08. 10:40 65% -
Mo, 03.08. 10:30 69% >70 km
Mo, 03.08. 10:00 70% 65 km
Mo, 03.08. 9:30 80% -
Mo, 03.08. 9:00 86% 40 km
Mo, 03.08. 8:30 88% 30 km
Ortszeit Niederschlagsmenge Niederschlagsart
Mo, 03.08. 8:00 0.0 l/m2 in 12 Std. -
Mo, 03.08. 2:00 0.0 l/m2 in 6 Std. -
So, 02.08. 20:00 0.1 l/m2 in 12 Std. Regen
So, 02.08. 14:00 0.0 l/m2 in 6 Std. -
So, 02.08. 8:00 0.0 l/m2 in 12 Std. -
So, 02.08. 2:00 0.0 l/m2 in 6 Std. -
Sa, 01.08. 20:00 0.1 l/m2 in 12 Std. -
Sa, 01.08. 14:00 0.1 l/m2 in 6 Std. Regen
Ortszeit Niederschlagsmenge Niederschlagsart
Mo, 03.08. 11:30 0.0 l/m2 in 1 Std. -
Mo, 03.08. 11:20 keine Meldung -
Mo, 03.08. 11:10 keine Meldung -
Mo, 03.08. 11:00 0.0 l/m2 in 1 Std. -
Mo, 03.08. 10:50 keine Meldung -
Mo, 03.08. 10:40 keine Meldung -
Mo, 03.08. 10:30 0.0 l/m2 in 1 Std. -
Mo, 03.08. 10:00 0.0 l/m2 in 1 Std. -
Mo, 03.08. 9:30 0.0 l/m2 in 1 Std. -
Mo, 03.08. 9:00 0.0 l/m2 in 1 Std. -
Mo, 03.08. 8:30 0.0 l/m2 in 1 Std. -
Ortszeit Stärke Spitze Richtung
km/h Bft. km/h Grad Sektor
Mo, 03.08. 8:00 4 1 7 220° SW
Mo, 03.08. 2:00 0 0 29 - -
So, 02.08. 20:00 22 4 43 320° NW
So, 02.08. 14:00 18 3 29 250° W
So, 02.08. 8:00 4 1 11 200° S
So, 02.08. 2:00 6 1 26 290° W
Sa, 01.08. 20:00 9 2 26 330° NW
Sa, 01.08. 14:00 15 3 24 220° SW
Ortszeit Stärke Spitze Richtung
km/h Bft. km/h Grad Sektor
Mo, 03.08. 11:30 4 1 14 270° W
Mo, 03.08. 11:20 4 1 - 270° W
Mo, 03.08. 11:10 4 1 - 140° SO
Mo, 03.08. 11:00 7 2 11 230° SW
Mo, 03.08. 10:50 7 2 - 230° SW
Mo, 03.08. 10:40 6 1 - 250° W
Mo, 03.08. 10:30 6 1 7 270° W
Mo, 03.08. 10:00 4 1 7 260° W
Mo, 03.08. 9:30 4 1 7 230° SW
Mo, 03.08. 9:00 6 1 7 230° SW
Mo, 03.08. 8:30 4 1 7 230° SW
Ortszeit Untergrenze Bedeckung Gattung
total tief tief mittel hoch
Mo, 03.08. 8:00 7500 m 4/8 0/8 - - -
Mo, 03.08. 2:00 10500 m 8/8 0/8 - - -
So, 02.08. 20:00 1050 m 1/8 1/8 - - -
So, 02.08. 14:00 1230 m 3/8 5/8 - - -
So, 02.08. 8:00 8700 m 5/8 0/8 - - -
So, 02.08. 2:00 1500 m 2/8 2/8 - - -
Sa, 01.08. 20:00 1350 m 7/8 7/8 - - -
Sa, 01.08. 14:00 3600 m 7/8 8/8 - - -
Ortszeit Bedeckungsgrad in Achtel und Wolkenuntergrenze
Mo, 03.08. 11:30 3(870m) 7(5100m) 8(7200m)
Mo, 03.08. 11:20 3(870m) 7(5100m) 8(7200m)
Mo, 03.08. 11:10 5(4800m) 7(7200m) 7(7800m)
Mo, 03.08. 11:00 1(5100m) 5(7200m) 7(7800m)
Mo, 03.08. 10:50 1(5100m) 5(7200m) 7(7800m)
Mo, 03.08. 10:40 1(5100m) 7(7800m)
Mo, 03.08. 10:30 6(7500m) 7(8400m) 7(8400m)
Mo, 03.08. 10:00 3(7500m) 6(8400m) 7(10500m)
Mo, 03.08. 9:30 1(9000m) 3(9000m) 5(10500m)
Mo, 03.08. 9:00 1(9000m)
Mo, 03.08. 8:30 4(7800m) 5(9000m) 5(10500m)
Ortszeit Luftdruck NN (hPa) Tendenz (hPa in 3 Std.)
Mo, 03.08. 8:00 1014 - 0,2
Mo, 03.08. 2:00 1015 - 0,1
So, 02.08. 20:00 1015 + 0,9
So, 02.08. 14:00 1013 - 0,4
So, 02.08. 8:00 1014 - 0,3
So, 02.08. 2:00 1015 + 0,1
Sa, 01.08. 20:00 1014 + 0,1
Sa, 01.08. 14:00 1014 + 0,8
Ortszeit Luftdruck NN (hPa) Tendenz (hPa in 3 Std.)
Mo, 03.08. 11:30 1014 - 0,4
Mo, 03.08. 11:20 1014 keine Meldung
Mo, 03.08. 11:10 1014 keine Meldung
Mo, 03.08. 11:00 1014 - 0,1
Mo, 03.08. 10:50 1014 keine Meldung
Mo, 03.08. 10:40 1014 keine Meldung
Mo, 03.08. 10:30 1014 - 0,1
Mo, 03.08. 10:00 1015 0,0
Mo, 03.08. 9:30 1015 0,0
Mo, 03.08. 9:00 1015 0,0
Mo, 03.08. 8:30 1015 0,0
Ortszeit Schneehöhe (cm)
Mo, 03.08. 8:00 -
Mo, 03.08. 2:00 -
So, 02.08. 20:00 -
So, 02.08. 14:00 -
So, 02.08. 8:00 -
So, 02.08. 2:00 -
Sa, 01.08. 20:00 -
Sa, 01.08. 14:00 -
Ortszeit Schneehöhe (cm)
Mo, 03.08. 11:30 -
Mo, 03.08. 11:20 -
Mo, 03.08. 11:10 -
Mo, 03.08. 11:00 -
Mo, 03.08. 10:50 -
Mo, 03.08. 10:40 -
Mo, 03.08. 10:30 -
Mo, 03.08. 10:00 -
Mo, 03.08. 9:30 -
Mo, 03.08. 9:00 -
Mo, 03.08. 8:30 -
Link zu dieser Seite / Seite empfehlen

Das Wetter in ...